createdAt,value
2023-01-13T00:00:09.119Z,12.98
2023-01-13T00:02:39.730Z,14.77
2023-01-13T00:05:07.931Z,14.02
2023-01-13T00:07:35.518Z,15.52
2023-01-13T00:10:10.539Z,13.27
2023-01-13T00:12:40.639Z,14.25
2023-01-13T00:15:09.473Z,13.27
2023-01-13T00:17:37.195Z,14.60
2023-01-13T00:20:07.562Z,14.55
2023-01-13T00:22:35.739Z,14.97
2023-01-13T00:25:04.431Z,14.82
2023-01-13T00:27:32.723Z,13.98
2023-01-13T00:30:00.376Z,14.20
2023-01-13T00:32:28.615Z,16.90
2023-01-13T00:34:56.499Z,16.13
2023-01-13T00:37:24.035Z,14.75
2023-01-13T00:39:52.430Z,13.35
2023-01-13T00:42:38.668Z,15.55
2023-01-13T00:45:06.700Z,14.73
2023-01-13T00:47:34.455Z,15.23
2023-01-13T00:50:02.228Z,18.45
2023-01-13T00:52:32.434Z,16.95
2023-01-13T00:55:00.888Z,15.55
2023-01-13T00:57:28.473Z,17.15
2023-01-13T00:59:56.267Z,17.20
2023-01-13T01:02:24.141Z,14.43
2023-01-13T01:04:51.812Z,17.48
2023-01-13T01:07:19.265Z,19.85
2023-01-13T01:09:47.043Z,14.13
2023-01-13T01:12:14.637Z,13.50
2023-01-13T01:14:42.147Z,15.85
2023-01-13T01:17:17.746Z,18.05
2023-01-13T01:19:45.437Z,16.10
2023-01-13T01:22:13.344Z,15.43
2023-01-13T01:24:40.820Z,16.77
2023-01-13T01:27:08.303Z,17.08
2023-01-13T01:29:36.129Z,17.73
2023-01-13T01:32:03.666Z,18.98
2023-01-13T01:34:31.242Z,14.57
2023-01-13T01:36:59.030Z,15.63
2023-01-13T01:39:26.677Z,15.52
2023-01-13T01:42:12.397Z,13.38
2023-01-13T01:44:43.157Z,18.52
2023-01-13T01:47:11.925Z,14.35
2023-01-13T01:49:40.422Z,13.23
2023-01-13T01:52:21.765Z,15.13
2023-01-13T01:54:58.461Z,15.05
2023-01-13T01:57:57.033Z,13.20
2023-01-13T02:00:26.350Z,17.58
2023-01-13T02:02:54.719Z,15.77
2023-01-13T02:05:22.535Z,17.98
2023-01-13T02:07:52.673Z,16.05
2023-01-13T02:10:22.613Z,16.98
2023-01-13T02:12:52.245Z,14.77
2023-01-13T02:15:27.722Z,12.83
2023-01-13T02:18:25.336Z,13.07
2023-01-13T02:21:08.638Z,12.85
2023-01-13T02:24:21.063Z,14.93
2023-01-13T02:27:13.876Z,12.40
2023-01-13T02:30:16.326Z,13.97
2023-01-13T02:32:50.083Z,11.45
2023-01-13T02:35:20.388Z,11.27
2023-01-13T02:37:49.004Z,12.68
2023-01-13T02:40:47.900Z,14.57
2023-01-13T02:43:42.371Z,10.93
2023-01-13T02:46:15.102Z,11.25
2023-01-13T02:48:45.039Z,10.27
2023-01-13T02:51:15.774Z,12.02
2023-01-13T02:53:51.229Z,11.00
2023-01-13T02:56:20.057Z,11.23
2023-01-13T02:58:49.101Z,10.65
2023-01-13T03:01:17.068Z,12.75
2023-01-13T03:03:44.768Z,11.65
2023-01-13T03:06:15.545Z,11.45
2023-01-13T03:08:49.161Z,12.43
2023-01-13T03:11:19.726Z,12.93
2023-01-13T03:14:05.762Z,16.02
2023-01-13T03:17:21.866Z,15.35
2023-01-13T03:20:22.888Z,14.90
2023-01-13T03:23:02.689Z,15.27
2023-01-13T03:25:35.934Z,8.88
2023-01-13T03:28:06.449Z,15.05
2023-01-13T03:30:38.117Z,11.50
2023-01-13T03:33:10.385Z,14.20
2023-01-13T03:35:44.257Z,23.07
2023-01-13T03:38:19.126Z,12.50
2023-01-13T03:41:17.955Z,10.52
2023-01-13T03:44:09.270Z,11.55
2023-01-13T03:46:52.271Z,21.27
2023-01-13T03:49:23.922Z,15.57
2023-01-13T03:51:59.225Z,18.35
2023-01-13T03:54:28.437Z,14.93
2023-01-13T03:56:59.739Z,19.17
2023-01-13T03:59:32.191Z,20.58
2023-01-13T04:02:08.438Z,17.83
2023-01-13T04:04:42.921Z,12.98
2023-01-13T04:07:36.950Z,19.58
2023-01-13T04:10:08.107Z,16.98
2023-01-13T04:13:02.216Z,18.87
2023-01-13T04:15:33.368Z,11.90
2023-01-13T04:18:20.855Z,16.55
2023-01-13T04:20:50.961Z,13.35
2023-01-13T04:23:20.408Z,17.00
2023-01-13T04:25:48.583Z,13.68
2023-01-13T04:28:17.263Z,16.80
2023-01-13T04:30:45.596Z,13.70
2023-01-13T04:33:14.210Z,14.95
2023-01-13T04:35:42.025Z,16.35
2023-01-13T04:38:15.474Z,14.50
2023-01-13T04:40:44.181Z,13.97
2023-01-13T04:43:12.234Z,17.98
2023-01-13T04:45:39.771Z,14.55
2023-01-13T04:48:07.955Z,13.48
2023-01-13T04:50:36.044Z,12.37
2023-01-13T04:53:03.628Z,11.17
2023-01-13T04:55:32.040Z,13.68
2023-01-13T04:58:07.487Z,12.37
2023-01-13T05:00:36.027Z,12.45
2023-01-13T05:03:04.212Z,12.60
2023-01-13T05:05:31.847Z,11.33
2023-01-13T05:07:59.873Z,11.45
2023-01-13T05:10:27.611Z,12.00
2023-01-13T05:13:13.789Z,12.90
2023-01-13T05:16:00.953Z,11.95
2023-01-13T05:18:29.807Z,10.67
2023-01-13T05:20:57.854Z,11.50
2023-01-13T05:23:44.108Z,12.50
2023-01-13T05:26:11.894Z,10.55
2023-01-13T05:28:39.389Z,14.02
2023-01-13T05:31:06.981Z,11.30
2023-01-13T05:33:36.052Z,13.10
2023-01-13T05:36:03.975Z,11.98
2023-01-13T05:38:31.950Z,11.38
2023-01-13T05:41:18.661Z,15.45
2023-01-13T05:43:46.277Z,11.10
2023-01-13T05:46:14.937Z,12.37
2023-01-13T05:48:42.976Z,12.13
2023-01-13T05:51:12.372Z,11.35
2023-01-13T05:53:43.595Z,10.57
2023-01-13T05:56:11.324Z,9.47
2023-01-13T05:58:39.221Z,10.02
2023-01-13T06:01:11.297Z,14.18
2023-01-13T06:03:39.297Z,13.18
2023-01-13T06:06:09.050Z,13.60
2023-01-13T06:08:39.436Z,12.93
2023-01-13T06:11:10.421Z,10.98
2023-01-13T06:13:37.978Z,12.55
2023-01-13T06:16:05.701Z,14.20
2023-01-13T06:18:33.686Z,14.93
2023-01-13T06:21:01.280Z,13.53
2023-01-13T06:23:29.351Z,14.05
2023-01-13T06:26:20.643Z,10.75
2023-01-13T06:28:50.093Z,12.85
2023-01-13T06:31:18.373Z,20.55
2023-01-13T06:33:52.509Z,32.93
2023-01-13T06:36:24.175Z,15.25
2023-01-13T06:38:53.934Z,13.45
2023-01-13T06:41:42.179Z,10.82
2023-01-13T06:44:09.810Z,12.77
2023-01-13T06:46:37.808Z,13.20
2023-01-13T06:49:05.651Z,13.73
2023-01-13T06:51:33.143Z,12.52
2023-01-13T06:54:01.030Z,12.80
2023-01-13T06:56:28.582Z,13.18
2023-01-13T06:58:56.084Z,14.57
2023-01-13T07:01:24.127Z,16.27
2023-01-13T07:03:51.891Z,16.98
2023-01-13T07:06:19.489Z,15.68
2023-01-13T07:08:47.302Z,13.82
2023-01-13T07:11:14.989Z,13.47
2023-01-13T07:14:00.827Z,16.85
2023-01-13T07:16:28.781Z,13.55
2023-01-13T07:18:56.533Z,13.00
2023-01-13T07:21:24.185Z,14.57
2023-01-13T07:23:52.037Z,12.77
2023-01-13T07:26:19.635Z,12.60
2023-01-13T07:28:47.274Z,13.27
2023-01-13T07:31:18.354Z,12.37
2023-01-13T07:33:46.044Z,12.32
2023-01-13T07:36:14.433Z,11.80
2023-01-13T07:38:44.531Z,12.88
2023-01-13T07:41:32.751Z,12.57
2023-01-13T07:44:04.757Z,12.57
2023-01-13T07:46:33.216Z,11.80
2023-01-13T07:49:04.887Z,12.30
2023-01-13T07:51:32.603Z,12.63
2023-01-13T07:54:00.152Z,14.68
2023-01-13T07:56:27.972Z,14.93
2023-01-13T07:58:55.607Z,18.67
2023-01-13T08:01:23.355Z,12.60
2023-01-13T08:03:51.381Z,14.63
2023-01-13T08:06:19.217Z,12.77
2023-01-13T08:08:46.769Z,12.25
2023-01-13T08:11:14.521Z,13.87
2023-01-13T08:13:42.065Z,12.73
2023-01-13T08:16:12.706Z,13.88
2023-01-13T08:18:41.517Z,12.00
2023-01-13T08:21:14.259Z,10.85
2023-01-13T08:23:43.716Z,12.77
2023-01-13T08:26:17.188Z,12.55
2023-01-13T08:28:45.768Z,10.35
2023-01-13T08:31:16.213Z,9.77
2023-01-13T08:33:44.516Z,11.12
2023-01-13T08:36:13.299Z,10.17
2023-01-13T08:38:41.519Z,11.82
2023-01-13T08:41:14.627Z,11.43
2023-01-13T08:43:42.569Z,14.65
2023-01-13T08:46:10.226Z,14.00
2023-01-13T08:48:37.857Z,13.27
2023-01-13T08:51:07.992Z,11.48
2023-01-13T08:53:35.645Z,13.23
2023-01-13T08:56:07.700Z,12.70
2023-01-13T08:58:35.525Z,10.25
2023-01-13T09:01:07.089Z,10.03
2023-01-13T09:03:35.074Z,16.25
2023-01-13T09:06:02.886Z,11.90
2023-01-13T09:08:30.645Z,11.77
2023-01-13T09:10:58.634Z,11.07
2023-01-13T09:13:26.488Z,11.47
2023-01-13T09:15:56.880Z,11.40
2023-01-13T09:18:24.946Z,11.12
2023-01-13T09:20:52.618Z,12.50
2023-01-13T09:23:20.163Z,13.05
2023-01-13T09:25:49.244Z,15.73
2023-01-13T09:28:16.941Z,14.45
2023-01-13T09:30:44.560Z,15.05
2023-01-13T09:33:31.062Z,16.15
2023-01-13T09:35:59.345Z,15.82
2023-01-13T09:38:27.687Z,17.13
2023-01-13T09:40:56.457Z,22.73
2023-01-13T09:43:51.911Z,16.30
2023-01-13T09:46:47.223Z,19.23
2023-01-13T09:49:20.962Z,17.20
2023-01-13T09:52:06.476Z,14.90
2023-01-13T09:54:39.741Z,18.05
2023-01-13T09:57:15.683Z,18.87
2023-01-13T09:59:43.901Z,18.05
2023-01-13T10:02:27.185Z,16.42
2023-01-13T10:05:17.935Z,15.00
2023-01-13T10:07:55.857Z,13.32
2023-01-13T10:10:38.891Z,14.75
2023-01-13T10:13:20.241Z,17.95
2023-01-13T10:15:54.691Z,16.55
2023-01-13T10:18:33.155Z,20.30
2023-01-13T10:21:04.532Z,20.10
2023-01-13T10:23:38.872Z,18.92
2023-01-13T10:26:25.257Z,15.07
2023-01-13T10:28:53.992Z,17.50
2023-01-13T10:31:22.757Z,17.07
2023-01-13T10:33:58.997Z,15.88
2023-01-13T10:36:27.313Z,18.48
2023-01-13T10:39:07.174Z,19.73
2023-01-13T10:41:36.317Z,16.65
2023-01-13T10:44:09.409Z,17.97
2023-01-13T10:46:55.776Z,17.65
2023-01-13T10:49:26.703Z,18.00
2023-01-13T10:51:54.656Z,24.12
2023-01-13T10:54:24.105Z,17.35
2023-01-13T10:57:14.931Z,16.53
2023-01-13T10:59:42.987Z,14.18
2023-01-13T11:02:25.266Z,19.30
2023-01-13T11:04:53.885Z,16.62
2023-01-13T11:07:28.641Z,18.77
2023-01-13T11:10:05.805Z,17.63
2023-01-13T11:13:00.895Z,16.40
2023-01-13T11:15:50.181Z,15.18
2023-01-13T11:18:36.692Z,18.75
2023-01-13T11:21:09.733Z,18.12
2023-01-13T11:23:40.880Z,18.20
2023-01-13T11:26:26.741Z,21.35
2023-01-13T11:29:08.939Z,17.65
2023-01-13T11:31:40.555Z,17.48
2023-01-13T11:34:15.858Z,19.23
2023-01-13T11:36:51.146Z,19.13
2023-01-13T11:39:28.087Z,20.92
2023-01-13T11:42:21.751Z,17.02
2023-01-13T11:45:27.823Z,17.87
2023-01-13T11:47:58.759Z,18.87
2023-01-13T11:50:34.695Z,17.63
2023-01-13T11:53:26.804Z,16.40
2023-01-13T11:55:54.263Z,17.55
2023-01-13T11:58:50.211Z,19.52
2023-01-13T12:01:27.921Z,18.65
2023-01-13T12:04:14.499Z,21.27
2023-01-13T12:06:43.514Z,20.40
2023-01-13T12:09:30.225Z,18.25
2023-01-13T12:12:20.095Z,17.60
2023-01-13T12:15:23.764Z,18.40
2023-01-13T12:18:11.474Z,18.50
2023-01-13T12:21:00.046Z,16.90
2023-01-13T12:23:39.032Z,17.98
2023-01-13T12:26:10.089Z,19.40
2023-01-13T12:28:56.041Z,17.65
2023-01-13T12:31:25.093Z,19.73
2023-01-13T12:34:10.142Z,23.35
2023-01-13T12:36:46.950Z,18.40
2023-01-13T12:39:33.173Z,15.65
2023-01-13T12:42:34.416Z,18.27
2023-01-13T12:45:06.667Z,16.20
2023-01-13T12:47:36.944Z,18.50
2023-01-13T12:50:23.686Z,18.58
2023-01-13T12:52:58.465Z,21.87
2023-01-13T12:55:34.992Z,18.05
2023-01-13T12:58:06.483Z,18.17
2023-01-13T13:00:58.213Z,22.50
2023-01-13T13:04:07.711Z,20.77
2023-01-13T13:06:37.765Z,19.75
2023-01-13T13:09:17.573Z,21.48
2023-01-13T13:11:59.269Z,17.87
2023-01-13T13:14:39.805Z,20.23
2023-01-13T13:17:19.819Z,19.65
2023-01-13T13:19:48.969Z,24.70
2023-01-13T13:22:21.831Z,22.87
2023-01-13T13:24:49.678Z,22.87
2023-01-13T13:27:17.951Z,22.50
2023-01-13T13:29:48.270Z,26.85
2023-01-13T13:32:32.438Z,27.50
2023-01-13T13:35:09.115Z,23.17
2023-01-13T13:38:06.249Z,25.67
2023-01-13T13:40:58.990Z,26.30
2023-01-13T13:43:46.369Z,25.00
2023-01-13T13:46:45.909Z,31.65
2023-01-13T13:49:37.416Z,28.83
2023-01-13T13:52:22.558Z,30.00
2023-01-13T13:54:52.966Z,27.13
2023-01-13T13:57:23.592Z,31.05
2023-01-13T13:59:58.094Z,29.02
2023-01-13T14:02:31.238Z,30.77
2023-01-13T14:05:19.158Z,29.70
2023-01-13T14:07:49.373Z,31.60
2023-01-13T14:10:25.788Z,33.85
2023-01-13T14:12:53.367Z,34.53
2023-01-13T14:15:31.684Z,28.00
2023-01-13T14:18:01.709Z,31.17
2023-01-13T14:20:30.077Z,31.52
2023-01-13T14:23:01.773Z,31.55
2023-01-13T14:25:34.682Z,31.10
2023-01-13T14:28:32.322Z,31.83
2023-01-13T14:31:01.356Z,35.43
2023-01-13T14:33:35.399Z,31.83
2023-01-13T14:36:12.801Z,31.40
2023-01-13T14:38:41.544Z,31.90
2023-01-13T14:41:22.344Z,32.40
2023-01-13T14:43:51.932Z,30.03
2023-01-13T14:46:23.050Z,31.23
2023-01-13T14:48:53.906Z,32.53
2023-01-13T14:51:26.911Z,32.60
2023-01-13T14:53:54.793Z,32.20
2023-01-13T14:56:43.588Z,33.60
2023-01-13T14:59:51.793Z,30.35
2023-01-13T15:02:37.497Z,29.00
2023-01-13T15:05:16.908Z,31.20
2023-01-13T15:07:55.242Z,31.25
2023-01-13T15:10:25.939Z,34.83
2023-01-13T15:12:55.634Z,32.08
2023-01-13T15:15:30.268Z,30.27
2023-01-13T15:17:59.121Z,30.73
2023-01-13T15:20:27.750Z,27.15
2023-01-13T15:22:57.998Z,30.40
2023-01-13T15:25:25.889Z,30.83
2023-01-13T15:27:53.801Z,26.40
2023-01-13T15:30:26.645Z,26.85
2023-01-13T15:32:55.968Z,24.37
2023-01-13T15:35:25.354Z,23.90
2023-01-13T15:37:53.173Z,25.88
2023-01-13T15:40:25.401Z,25.52
2023-01-13T15:43:11.537Z,30.65
2023-01-13T15:45:57.944Z,25.23
2023-01-13T15:48:28.154Z,24.90
2023-01-13T15:50:56.560Z,26.95
2023-01-13T15:53:24.524Z,27.75
2023-01-13T15:55:54.269Z,28.17
2023-01-13T15:58:27.082Z,24.12
2023-01-13T16:00:55.963Z,26.93
2023-01-13T16:03:23.955Z,21.35
2023-01-13T16:05:51.773Z,24.17
2023-01-13T16:08:22.056Z,23.73
2023-01-13T16:10:50.522Z,27.48
2023-01-13T16:13:18.418Z,26.53
2023-01-13T16:15:48.467Z,24.60
2023-01-13T16:18:24.219Z,23.42
2023-01-13T16:20:53.562Z,26.65
2023-01-13T16:23:22.753Z,25.33
2023-01-13T16:25:50.981Z,28.57
2023-01-13T16:28:28.206Z,25.42
2023-01-13T16:30:56.436Z,34.88
2023-01-13T16:33:24.117Z,31.17
2023-01-13T16:36:10.395Z,27.27
2023-01-13T16:38:39.807Z,29.17
2023-01-13T16:41:07.922Z,31.33
2023-01-13T16:43:36.119Z,30.55
2023-01-13T16:46:16.569Z,28.62
2023-01-13T16:48:44.470Z,29.73
2023-01-13T16:51:12.507Z,26.50
2023-01-13T16:53:40.468Z,28.40
2023-01-13T16:56:20.041Z,30.10
2023-01-13T16:58:50.898Z,28.55
2023-01-13T17:01:20.897Z,32.47
2023-01-13T17:03:49.432Z,27.43
2023-01-13T17:06:19.037Z,29.98
2023-01-13T17:08:46.629Z,27.80
2023-01-13T17:11:15.066Z,27.50
2023-01-13T17:13:42.724Z,27.37
2023-01-13T17:16:17.088Z,27.33
2023-01-13T17:18:45.994Z,27.98
2023-01-13T17:21:14.900Z,27.80
2023-01-13T17:23:42.755Z,28.77
2023-01-13T17:26:22.957Z,23.48
2023-01-13T17:28:50.540Z,26.73
2023-01-13T17:31:18.763Z,24.65
2023-01-13T17:33:46.568Z,27.80
2023-01-13T17:36:16.363Z,27.40
2023-01-13T17:38:44.414Z,32.55
2023-01-13T17:41:12.030Z,30.87
2023-01-13T17:43:39.798Z,29.35
2023-01-13T17:46:12.451Z,29.15
2023-01-13T17:48:40.085Z,30.20
2023-01-13T17:51:10.734Z,27.05
2023-01-13T17:53:41.550Z,26.50
2023-01-13T17:56:10.385Z,26.45
2023-01-13T17:58:38.780Z,24.37
2023-01-13T18:01:11.100Z,28.65
2023-01-13T18:03:39.791Z,23.38
2023-01-13T18:06:10.728Z,26.00
2023-01-13T18:08:38.530Z,27.40
2023-01-13T18:11:06.399Z,27.70
2023-01-13T18:13:37.501Z,26.75
2023-01-13T18:16:11.426Z,29.02
2023-01-13T18:18:40.865Z,26.63
2023-01-13T18:21:36.370Z,31.70
2023-01-13T18:24:23.782Z,31.58
2023-01-13T18:27:09.978Z,27.87
2023-01-13T18:29:37.888Z,26.30
2023-01-13T18:32:07.626Z,27.50
2023-01-13T18:34:39.186Z,26.25
2023-01-13T18:37:08.917Z,31.58
2023-01-13T18:39:39.763Z,30.98
2023-01-13T18:42:27.505Z,34.58
2023-01-13T18:44:57.027Z,32.10
2023-01-13T18:47:33.711Z,31.30
2023-01-13T18:50:01.871Z,30.23
2023-01-13T18:52:29.902Z,30.40
2023-01-13T18:54:57.933Z,36.85
2023-01-13T18:57:25.707Z,35.50
2023-01-13T18:59:56.784Z,29.50
2023-01-13T19:02:26.497Z,27.55
2023-01-13T19:04:54.558Z,32.33
2023-01-13T19:07:24.342Z,32.10
2023-01-13T19:09:55.370Z,29.83
2023-01-13T19:12:26.378Z,31.90
2023-01-13T19:14:55.036Z,33.17
2023-01-13T19:17:24.408Z,31.08
2023-01-13T19:19:54.183Z,28.33
2023-01-13T19:22:23.748Z,35.50
2023-01-13T19:24:52.123Z,35.95
2023-01-13T19:27:20.648Z,31.60
2023-01-13T19:29:52.825Z,35.80
2023-01-13T19:32:21.922Z,32.78
2023-01-13T19:34:51.211Z,32.13
2023-01-13T19:37:19.565Z,31.35
2023-01-13T19:39:48.796Z,33.00
2023-01-13T19:42:35.275Z,42.45
2023-01-13T19:45:22.746Z,42.10
2023-01-13T19:47:53.505Z,36.30
2023-01-13T19:50:21.681Z,38.17
2023-01-13T19:52:49.224Z,38.63
2023-01-13T19:55:16.997Z,38.13
2023-01-13T19:57:45.196Z,39.63
2023-01-13T20:00:15.499Z,38.80
2023-01-13T20:02:49.338Z,36.25
2023-01-13T20:05:21.241Z,38.92
2023-01-13T20:07:50.670Z,43.55
2023-01-13T20:10:20.523Z,42.45
2023-01-13T20:12:48.843Z,51.70
2023-01-13T20:15:17.345Z,40.53
2023-01-13T20:17:45.518Z,42.38
2023-01-13T20:20:15.964Z,40.58
2023-01-13T20:22:44.805Z,44.92
2023-01-13T20:25:16.823Z,41.83
2023-01-13T20:27:46.012Z,41.78
2023-01-13T20:30:14.911Z,46.67
2023-01-13T20:32:45.785Z,46.72
2023-01-13T20:35:14.258Z,45.80
2023-01-13T20:37:43.061Z,43.83
2023-01-13T20:40:14.771Z,39.17
2023-01-13T20:42:45.216Z,43.90
2023-01-13T20:45:16.993Z,40.75
2023-01-13T20:47:45.810Z,29.27
2023-01-13T20:50:14.434Z,35.93
2023-01-13T20:52:43.283Z,36.65
2023-01-13T20:55:11.952Z,34.65
2023-01-13T20:57:41.095Z,36.05
2023-01-13T21:00:10.470Z,33.15
2023-01-13T21:02:40.841Z,36.00
2023-01-13T21:05:09.649Z,35.80
2023-01-13T21:07:37.752Z,37.15
2023-01-13T21:10:07.183Z,34.58
2023-01-13T21:12:53.757Z,38.15
2023-01-13T21:15:22.119Z,35.60
2023-01-13T21:18:09.893Z,32.25
2023-01-13T21:20:38.692Z,34.88
2023-01-13T21:23:07.536Z,35.20
2023-01-13T21:25:37.240Z,32.78
2023-01-13T21:28:11.066Z,31.20
2023-01-13T21:30:39.723Z,30.52
2023-01-13T21:33:08.250Z,26.75
2023-01-13T21:35:38.297Z,27.75
2023-01-13T21:38:05.974Z,28.67
2023-01-13T21:40:33.812Z,29.43
2023-01-13T21:43:19.810Z,27.35
2023-01-13T21:46:06.789Z,31.50
2023-01-13T21:48:34.489Z,30.73
2023-01-13T21:51:02.371Z,32.92
2023-01-13T21:53:29.952Z,30.53
2023-01-13T21:55:57.459Z,33.60
2023-01-13T21:58:25.373Z,34.60
2023-01-13T22:00:54.064Z,33.85
2023-01-13T22:03:22.277Z,35.20
2023-01-13T22:05:54.899Z,40.67
2023-01-13T22:08:22.878Z,32.30
2023-01-13T22:11:00.483Z,34.20
2023-01-13T22:13:48.113Z,33.88
2023-01-13T22:16:16.026Z,34.50
2023-01-13T22:18:43.963Z,38.30
2023-01-13T22:21:11.573Z,40.53
2023-01-13T22:23:39.236Z,41.03
2023-01-13T22:26:07.860Z,42.65
2023-01-13T22:28:42.718Z,46.58
2023-01-13T22:31:12.744Z,46.37
2023-01-13T22:33:41.118Z,43.40
2023-01-13T22:36:09.832Z,46.03
2023-01-13T22:38:37.959Z,43.85
2023-01-13T22:41:07.683Z,42.38
2023-01-13T22:43:36.265Z,44.13
2023-01-13T22:46:06.919Z,45.12
2023-01-13T22:48:34.894Z,41.63
2023-01-13T22:51:16.208Z,43.45
2023-01-13T22:53:44.397Z,40.97
2023-01-13T22:56:20.839Z,29.67
2023-01-13T22:58:53.444Z,33.65
2023-01-13T23:01:21.125Z,31.83
2023-01-13T23:03:49.137Z,27.42
2023-01-13T23:06:18.308Z,26.87
2023-01-13T23:08:46.531Z,23.63
2023-01-13T23:11:16.230Z,22.17
2023-01-13T23:13:44.091Z,22.73
2023-01-13T23:16:21.179Z,22.85
2023-01-13T23:18:49.178Z,23.17
2023-01-13T23:21:28.765Z,23.20
2023-01-13T23:23:58.551Z,19.58
2023-01-13T23:26:26.968Z,20.85
2023-01-13T23:28:58.641Z,20.17
2023-01-13T23:31:26.693Z,18.65
2023-01-13T23:33:54.335Z,19.07
2023-01-13T23:36:24.399Z,23.00
2023-01-13T23:38:53.429Z,18.83
2023-01-13T23:41:25.482Z,20.92
2023-01-13T23:44:00.574Z,20.58
2023-01-13T23:46:29.893Z,24.17
2023-01-13T23:48:57.948Z,23.85
2023-01-13T23:51:27.520Z,26.27
2023-01-13T23:53:55.184Z,27.10
2023-01-13T23:56:25.399Z,27.33
2023-01-13T23:58:53.433Z,25.00
